createdAt,value
2018-02-23T00:00:28.691Z,-1.91
2018-02-23T00:02:56.182Z,-2.02
2018-02-23T00:05:23.727Z,-1.99
2018-02-23T00:07:51.221Z,-1.97
2018-02-23T00:10:18.691Z,-1.88
2018-02-23T00:12:46.192Z,-1.99
2018-02-23T00:15:13.653Z,-2.08
2018-02-23T00:17:41.137Z,-2.22
2018-02-23T00:20:08.614Z,-2.31
2018-02-23T00:22:42.076Z,-2.36
2018-02-23T00:25:09.547Z,-2.19
2018-02-23T00:27:37.030Z,-2.18
2018-02-23T00:30:04.507Z,-2.25
2018-02-23T00:32:31.992Z,-2.20
2018-02-23T00:34:59.468Z,-2.16
2018-02-23T00:37:26.954Z,-2.20
2018-02-23T00:39:54.431Z,-2.25
2018-02-23T00:42:21.919Z,-2.15
2018-02-23T00:44:49.378Z,-2.15
2018-02-23T00:47:16.866Z,-2.08
2018-02-23T00:49:44.337Z,-2.07
2018-02-23T00:52:11.849Z,-2.13
2018-02-23T00:54:39.311Z,-2.18
2018-02-23T00:57:06.815Z,-2.07
2018-02-23T00:59:34.287Z,-2.04
2018-02-23T01:02:01.772Z,-2.06
2018-02-23T01:04:29.231Z,-2.04
2018-02-23T01:06:56.735Z,-2.06
2018-02-23T01:09:24.196Z,-2.10
2018-02-23T01:11:51.690Z,-2.10
2018-02-23T01:14:19.161Z,-2.09
2018-02-23T01:16:46.646Z,-2.09
2018-02-23T01:19:14.136Z,-2.15
2018-02-23T01:21:41.607Z,-2.27
2018-02-23T01:24:09.099Z,-2.33
2018-02-23T01:26:36.565Z,-2.46
2018-02-23T01:29:04.053Z,-2.48
2018-02-23T01:31:31.550Z,-2.54
2018-02-23T01:33:59.125Z,-2.45
2018-02-23T01:36:26.582Z,-2.57
2018-02-23T01:38:54.106Z,-2.54
2018-02-23T01:41:21.607Z,-2.44
2018-02-23T01:43:49.083Z,-2.45
2018-02-23T01:46:16.546Z,-2.43
2018-02-23T01:48:44.035Z,-2.35
2018-02-23T01:51:11.507Z,-2.35
2018-02-23T01:53:39.004Z,-2.41
2018-02-23T01:56:06.473Z,-2.27
2018-02-23T01:58:33.960Z,-2.37
2018-02-23T02:01:01.432Z,-2.21
2018-02-23T02:03:28.934Z,-2.10
2018-02-23T02:05:56.400Z,-2.14
2018-02-23T02:08:23.902Z,-2.16
2018-02-23T02:10:51.359Z,-2.22
2018-02-23T02:13:18.845Z,-2.34
2018-02-23T02:15:46.318Z,-2.28
2018-02-23T02:18:13.815Z,-2.33
2018-02-23T02:20:41.291Z,-2.26
2018-02-23T02:23:08.767Z,-2.36
2018-02-23T02:25:36.228Z,-2.40
2018-02-23T02:28:03.756Z,-2.37
2018-02-23T02:30:31.265Z,-2.48
2018-02-23T02:32:58.763Z,-2.60
2018-02-23T02:35:26.239Z,-2.64
2018-02-23T02:37:53.704Z,-2.60
2018-02-23T02:40:21.186Z,-2.67
2018-02-23T02:42:48.647Z,-2.62
2018-02-23T02:45:16.130Z,-2.68
2018-02-23T02:47:43.594Z,-2.67
2018-02-23T02:50:11.084Z,-2.75
2018-02-23T02:52:38.547Z,-2.84
2018-02-23T02:55:06.035Z,-2.77
2018-02-23T02:57:33.496Z,-2.70
2018-02-23T03:00:00.990Z,-2.59
2018-02-23T03:02:28.462Z,-2.57
2018-02-23T03:04:55.967Z,-2.69
2018-02-23T03:07:23.455Z,-2.57
2018-02-23T03:09:50.944Z,-2.66
2018-02-23T03:12:18.427Z,-2.77
2018-02-23T03:14:45.900Z,-2.89
2018-02-23T03:17:13.444Z,-2.96
2018-02-23T03:19:40.885Z,-3.02
2018-02-23T03:22:08.375Z,-2.87
2018-02-23T03:24:35.912Z,-2.83
2018-02-23T03:27:03.403Z,-2.92
2018-02-23T03:29:30.879Z,-3.02
2018-02-23T03:31:58.376Z,-3.01
2018-02-23T03:34:25.847Z,-2.97
2018-02-23T03:36:54.081Z,-2.86
2018-02-23T03:39:21.551Z,-2.93
2018-02-23T03:41:49.026Z,-2.98
2018-02-23T03:44:16.518Z,-2.99
2018-02-23T03:46:44.015Z,-2.98
2018-02-23T03:49:11.508Z,-3.03
2018-02-23T03:51:38.997Z,-3.11
2018-02-23T03:54:06.528Z,-3.21
2018-02-23T03:56:34.004Z,-3.29
2018-02-23T03:59:01.496Z,-3.31
2018-02-23T04:01:28.986Z,-3.45
2018-02-23T04:03:56.494Z,-3.37
2018-02-23T04:06:23.966Z,-3.31
2018-02-23T04:08:51.438Z,-3.39
2018-02-23T04:11:18.925Z,-3.40
2018-02-23T04:13:46.400Z,-3.45
2018-02-23T04:16:13.919Z,-3.53
2018-02-23T04:18:41.396Z,-3.48
2018-02-23T04:21:08.894Z,-3.49
2018-02-23T04:23:36.368Z,-3.51
2018-02-23T04:26:03.883Z,-3.48
2018-02-23T04:28:31.362Z,-3.34
2018-02-23T04:30:58.867Z,-3.37
2018-02-23T04:33:26.335Z,-3.35
2018-02-23T04:35:53.844Z,-3.34
2018-02-23T04:38:21.328Z,-3.38
2018-02-23T04:40:48.823Z,-3.43
2018-02-23T04:43:16.304Z,-3.46
2018-02-23T04:45:43.990Z,-3.61
2018-02-23T04:48:11.463Z,-3.67
2018-02-23T04:50:38.956Z,-3.70
2018-02-23T04:53:07.203Z,-3.70
2018-02-23T04:55:34.707Z,-3.76
2018-02-23T04:58:02.175Z,-3.74
2018-02-23T05:00:29.670Z,-3.74
2018-02-23T05:02:57.146Z,-3.63
2018-02-23T05:05:25.507Z,-3.70
2018-02-23T05:07:52.973Z,-3.76
2018-02-23T05:10:21.132Z,-3.78
2018-02-23T05:12:48.618Z,-3.71
2018-02-23T05:15:16.110Z,-3.77
2018-02-23T05:17:43.579Z,-3.70
2018-02-23T05:20:11.042Z,-3.63
2018-02-23T05:22:38.542Z,-3.56
2018-02-23T05:25:06.022Z,-3.54
2018-02-23T05:27:33.520Z,-3.52
2018-02-23T05:30:00.991Z,-3.66
2018-02-23T05:32:28.480Z,-3.83
2018-02-23T05:34:55.953Z,-3.73
2018-02-23T05:37:23.451Z,-3.81
2018-02-23T05:39:50.922Z,-3.75
2018-02-23T05:42:18.411Z,-3.76
2018-02-23T05:44:45.875Z,-3.81
2018-02-23T05:47:13.367Z,-3.87
2018-02-23T05:49:40.835Z,-3.71
2018-02-23T05:52:08.327Z,-3.69
2018-02-23T05:54:35.799Z,-3.61
2018-02-23T05:57:03.730Z,-3.63
2018-02-23T05:59:31.213Z,-3.71
2018-02-23T06:01:58.735Z,-3.71
2018-02-23T06:04:26.224Z,-3.63
2018-02-23T06:06:53.719Z,-3.55
2018-02-23T06:09:21.185Z,-3.64
2018-02-23T06:11:48.675Z,-3.76
2018-02-23T06:14:16.150Z,-3.87
2018-02-23T06:16:43.639Z,-3.88
2018-02-23T06:19:11.115Z,-3.75
2018-02-23T06:21:38.603Z,-3.62
2018-02-23T06:24:06.071Z,-3.69
2018-02-23T06:26:33.574Z,-3.63
2018-02-23T06:29:01.055Z,-3.61
2018-02-23T06:31:28.547Z,-3.73
2018-02-23T06:33:56.029Z,-3.79
2018-02-23T06:36:23.531Z,-3.90
2018-02-23T06:38:50.999Z,-3.92
2018-02-23T06:41:18.539Z,-3.93
2018-02-23T06:43:46.028Z,-3.97
2018-02-23T06:46:13.496Z,-3.91
2018-02-23T06:48:40.991Z,-3.84
2018-02-23T06:51:08.464Z,-3.79
2018-02-23T06:53:35.956Z,-3.68
2018-02-23T06:56:03.440Z,-3.65
2018-02-23T06:58:30.944Z,-3.60
2018-02-23T07:00:58.411Z,-3.53
2018-02-23T07:03:25.909Z,-3.48
2018-02-23T07:05:53.872Z,-3.43
2018-02-23T07:08:21.365Z,-3.26
2018-02-23T07:10:49.500Z,-3.16
2018-02-23T07:13:16.964Z,-3.04
2018-02-23T07:15:44.462Z,-2.92
2018-02-23T07:18:11.961Z,-2.76
2018-02-23T07:20:39.439Z,-2.62
2018-02-23T07:23:06.933Z,-2.51
2018-02-23T07:25:34.394Z,-2.38
2018-02-23T07:28:02.739Z,-2.32
2018-02-23T07:30:30.201Z,-2.21
2018-02-23T07:32:57.770Z,-2.12
2018-02-23T07:35:25.271Z,-2.02
2018-02-23T07:37:52.757Z,-1.83
2018-02-23T07:40:20.228Z,-1.67
2018-02-23T07:42:47.715Z,-1.55
2018-02-23T07:45:15.182Z,-1.59
2018-02-23T07:47:42.675Z,-1.58
2018-02-23T07:50:10.142Z,-1.51
2018-02-23T07:52:37.631Z,-1.36
2018-02-23T07:55:05.108Z,-1.25
2018-02-23T07:57:32.592Z,-1.22
2018-02-23T08:00:00.064Z,-1.12
2018-02-23T08:02:27.606Z,-1.03
2018-02-23T08:04:55.076Z,-0.92
2018-02-23T08:07:22.584Z,-0.83
2018-02-23T08:09:50.075Z,-0.69
2018-02-23T08:12:17.551Z,-0.81
2018-02-23T08:14:45.053Z,-0.90
2018-02-23T08:17:12.512Z,-0.79
2018-02-23T08:19:40.001Z,-0.74
2018-02-23T08:22:07.463Z,-0.67
2018-02-23T08:24:34.951Z,-0.63
2018-02-23T08:27:02.447Z,-0.66
2018-02-23T08:29:29.923Z,-0.51
2018-02-23T08:31:57.380Z,-0.39
2018-02-23T08:34:24.876Z,-0.30
2018-02-23T08:36:52.367Z,-0.30
2018-02-23T08:39:19.846Z,-0.41
2018-02-23T08:41:47.313Z,-0.44
2018-02-23T08:44:14.812Z,-0.31
2018-02-23T08:46:42.282Z,-0.36
2018-02-23T08:49:09.769Z,-0.14
2018-02-23T08:51:37.232Z,-0.24
2018-02-23T08:54:04.712Z,-0.25
2018-02-23T08:56:32.174Z,-0.31
2018-02-23T08:58:59.677Z,-0.25
2018-02-23T09:01:27.188Z,-0.32
2018-02-23T09:03:54.673Z,-0.20
2018-02-23T09:06:22.143Z,-0.14
2018-02-23T09:08:49.626Z,-0.28
2018-02-23T09:11:17.114Z,-0.15
2018-02-23T09:13:44.609Z,-0.06
2018-02-23T09:16:12.076Z,-0.03
2018-02-23T09:18:39.559Z,-0.11
2018-02-23T09:21:07.022Z,-0.19
2018-02-23T09:23:34.511Z,-0.11
2018-02-23T09:26:01.972Z,0.02
2018-02-23T09:28:29.433Z,0.15
2018-02-23T09:30:56.917Z,0.15
2018-02-23T09:36:23.241Z,0.20
2018-02-23T09:38:50.951Z,0.22
2018-02-23T09:41:18.411Z,0.31
2018-02-23T09:43:45.879Z,0.54
2018-02-23T09:46:13.370Z,0.47
2018-02-23T09:48:40.829Z,0.72
2018-02-23T09:51:08.307Z,0.69
2018-02-23T09:53:35.764Z,0.83
2018-02-23T09:56:03.249Z,0.84
2018-02-23T09:58:30.769Z,0.77
2018-02-23T10:00:58.263Z,0.80
2018-02-23T10:03:25.763Z,0.93
2018-02-23T10:05:53.247Z,1.00
2018-02-23T10:08:20.708Z,1.03
2018-02-23T10:10:48.254Z,1.21
2018-02-23T10:13:15.671Z,1.28
2018-02-23T10:15:43.174Z,1.31
2018-02-23T10:18:10.640Z,1.38
2018-02-23T10:20:38.122Z,1.34
2018-02-23T10:23:06.724Z,1.28
2018-02-23T10:25:34.214Z,1.34
2018-02-23T10:28:01.693Z,1.31
2018-02-23T10:30:29.164Z,1.13
2018-02-23T10:32:56.624Z,1.30
2018-02-23T10:35:24.103Z,1.37
2018-02-23T10:37:51.555Z,1.67
2018-02-23T10:40:19.047Z,1.74
2018-02-23T10:42:46.524Z,1.69
2018-02-23T10:45:14.029Z,1.77
2018-02-23T10:47:41.474Z,1.95
2018-02-23T10:50:08.963Z,1.83
2018-02-23T10:52:36.423Z,1.67
2018-02-23T10:55:04.296Z,1.70
2018-02-23T10:57:31.776Z,1.56
2018-02-23T10:59:59.250Z,1.75
2018-02-23T11:02:26.715Z,1.82
2018-02-23T11:04:54.194Z,1.74
2018-02-23T11:07:21.678Z,1.77
2018-02-23T11:09:49.142Z,1.77
2018-02-23T11:12:16.624Z,1.82
2018-02-23T11:14:44.093Z,2.00
2018-02-23T11:17:11.572Z,2.13
2018-02-23T11:19:39.026Z,2.20
2018-02-23T11:22:06.512Z,2.29
2018-02-23T11:24:33.963Z,2.23
2018-02-23T11:27:01.444Z,2.19
2018-02-23T11:29:29.724Z,2.41
2018-02-23T11:31:57.207Z,2.51
2018-02-23T11:34:24.685Z,2.63
2018-02-23T11:36:52.167Z,2.84
2018-02-23T11:39:19.636Z,2.97
2018-02-23T11:41:47.103Z,2.96
2018-02-23T11:44:14.840Z,3.06
2018-02-23T11:46:42.340Z,3.08
2018-02-23T11:49:09.811Z,2.99
2018-02-23T11:51:37.341Z,2.81
2018-02-23T11:54:05.275Z,3.02
2018-02-23T11:56:32.827Z,3.13
2018-02-23T11:59:00.297Z,3.17
2018-02-23T12:01:27.784Z,3.36
2018-02-23T12:03:55.717Z,3.32
2018-02-23T12:06:23.240Z,3.27
2018-02-23T12:08:50.746Z,3.36
2018-02-23T12:11:18.340Z,3.54
2018-02-23T12:13:45.888Z,3.50
2018-02-23T12:16:13.466Z,3.46
2018-02-23T12:18:42.403Z,3.32
2018-02-23T12:21:09.948Z,3.37
2018-02-23T12:23:37.494Z,3.45
2018-02-23T12:26:05.045Z,3.31
2018-02-23T12:28:34.594Z,3.43
2018-02-23T12:31:02.117Z,3.65
2018-02-23T12:33:29.622Z,3.60
2018-02-23T12:36:04.563Z,3.61
2018-02-23T12:38:33.621Z,3.62
2018-02-23T12:41:02.895Z,3.92
2018-02-23T12:43:32.419Z,4.01
2018-02-23T12:46:00.142Z,4.25
2018-02-23T12:48:28.502Z,4.21
2018-02-23T12:50:56.174Z,4.09
2018-02-23T12:53:23.870Z,4.13
2018-02-23T12:55:51.594Z,4.01
2018-02-23T12:58:19.268Z,4.06
2018-02-23T13:00:47.597Z,4.16
2018-02-23T13:03:15.264Z,4.33
2018-02-23T13:05:43.123Z,4.68
2018-02-23T13:08:10.769Z,4.55
2018-02-23T13:10:38.545Z,4.51
2018-02-23T13:13:06.317Z,4.68
2018-02-23T13:15:34.230Z,4.68
2018-02-23T13:18:01.743Z,4.83
2018-02-23T13:20:29.227Z,4.90
2018-02-23T13:22:56.947Z,5.07
2018-02-23T13:25:24.431Z,5.27
2018-02-23T13:27:57.423Z,5.58
2018-02-23T13:30:25.061Z,5.49
2018-02-23T13:32:52.555Z,5.60
2018-02-23T13:35:20.019Z,5.11
2018-02-23T13:37:47.522Z,5.10
2018-02-23T13:40:15.011Z,5.71
2018-02-23T13:42:42.511Z,7.12
2018-02-23T13:45:10.004Z,8.28
2018-02-23T13:47:37.512Z,9.94
2018-02-23T13:50:05.204Z,10.58
2018-02-23T13:52:32.816Z,9.66
2018-02-23T13:55:00.326Z,10.38
2018-02-23T13:57:27.835Z,10.56
2018-02-23T13:59:55.567Z,10.09
2018-02-23T14:02:23.076Z,10.02
2018-02-23T14:04:50.622Z,10.39
2018-02-23T14:07:33.198Z,10.89
2018-02-23T14:10:00.674Z,10.83
2018-02-23T14:12:28.162Z,10.65
2018-02-23T14:14:55.695Z,10.65
2018-02-23T14:17:23.535Z,10.82
2018-02-23T14:19:51.473Z,12.03
2018-02-23T14:22:18.952Z,11.82
2018-02-23T14:24:46.453Z,11.92
2018-02-23T14:27:13.951Z,12.22
2018-02-23T14:29:41.442Z,11.04
2018-02-23T14:32:08.919Z,10.88
2018-02-23T14:34:36.500Z,11.23
2018-02-23T14:37:04.045Z,10.83
2018-02-23T14:39:31.651Z,11.26
2018-02-23T14:41:59.616Z,11.38
2018-02-23T14:44:27.195Z,10.82
2018-02-23T14:46:54.686Z,9.93
2018-02-23T14:49:22.228Z,10.27
2018-02-23T14:51:49.801Z,10.49
2018-02-23T14:54:17.297Z,10.34
2018-02-23T14:56:44.779Z,10.50
2018-02-23T14:59:12.271Z,10.58
2018-02-23T15:01:39.757Z,11.02
2018-02-23T15:04:07.260Z,10.58
2018-02-23T15:06:34.749Z,10.48
2018-02-23T15:09:02.312Z,11.07
2018-02-23T15:11:29.821Z,11.58
2018-02-23T15:13:57.327Z,9.92
2018-02-23T15:16:25.053Z,9.64
2018-02-23T15:18:52.563Z,9.97
2018-02-23T15:21:20.319Z,9.47
2018-02-23T15:23:47.947Z,9.72
2018-02-23T15:26:15.424Z,9.45
2018-02-23T15:28:43.864Z,9.54
2018-02-23T15:31:23.191Z,9.78
2018-02-23T15:33:50.758Z,10.24
2018-02-23T15:36:18.286Z,9.93
2018-02-23T15:38:45.796Z,9.23
2018-02-23T15:41:13.290Z,9.46
2018-02-23T15:46:12.537Z,9.13
2018-02-23T15:51:52.243Z,8.85
2018-02-23T15:54:20.349Z,8.64
2018-02-23T15:56:47.840Z,7.75
2018-02-23T15:59:15.329Z,7.44
2018-02-23T16:01:44.724Z,6.94
2018-02-23T16:04:12.234Z,7.00
2018-02-23T16:06:39.715Z,6.85
2018-02-23T16:09:07.196Z,6.64
2018-02-23T16:11:35.212Z,6.48
2018-02-23T16:14:02.699Z,6.29
2018-02-23T16:16:30.199Z,5.65
2018-02-23T16:18:57.643Z,5.24
2018-02-23T16:21:25.151Z,4.74
2018-02-23T16:23:52.616Z,4.29
2018-02-23T16:26:21.556Z,4.04
2018-02-23T16:28:49.065Z,3.67
2018-02-23T16:31:16.572Z,3.50
2018-02-23T16:33:44.063Z,3.31
2018-02-23T16:36:12.621Z,3.14
2018-02-23T16:38:49.340Z,2.91
2018-02-23T16:41:16.862Z,2.89
2018-02-23T16:43:44.424Z,2.83
2018-02-23T16:46:12.000Z,2.78
2018-02-23T16:48:39.497Z,2.68
2018-02-23T16:51:07.043Z,2.52
2018-02-23T16:53:34.512Z,2.45
2018-02-23T16:56:02.014Z,2.29
2018-02-23T16:58:29.492Z,2.45
2018-02-23T17:00:57.005Z,2.33
2018-02-23T17:03:26.459Z,2.15
2018-02-23T17:05:54.051Z,2.04
2018-02-23T17:08:21.638Z,2.02
2018-02-23T17:10:49.161Z,1.94
2018-02-23T17:13:16.677Z,1.83
2018-02-23T17:15:44.189Z,1.78
2018-02-23T17:18:11.670Z,1.67
2018-02-23T17:20:39.191Z,1.56
2018-02-23T17:23:06.680Z,1.59
2018-02-23T17:25:34.200Z,1.62
2018-02-23T17:28:01.700Z,1.63
2018-02-23T17:30:29.240Z,1.62
2018-02-23T17:32:56.733Z,1.60
2018-02-23T17:35:24.285Z,1.48
2018-02-23T17:37:51.822Z,1.47
2018-02-23T17:40:19.407Z,1.42
2018-02-23T17:42:46.948Z,1.42
2018-02-23T17:45:14.447Z,1.26
2018-02-23T17:47:41.928Z,1.19
2018-02-23T17:50:09.461Z,1.08
2018-02-23T17:52:37.055Z,1.08
2018-02-23T17:55:04.553Z,1.02
2018-02-23T17:57:32.080Z,0.96
2018-02-23T17:59:59.531Z,0.90
2018-02-23T18:02:27.028Z,0.86
2018-02-23T18:04:54.500Z,0.83
2018-02-23T18:07:23.505Z,0.73
2018-02-23T18:09:51.216Z,0.67
2018-02-23T18:12:19.082Z,0.61
2018-02-23T18:14:46.736Z,0.70
2018-02-23T18:19:46.105Z,0.67
2018-02-23T18:22:13.746Z,0.58
2018-02-23T18:24:41.265Z,0.49
2018-02-23T18:27:08.749Z,0.42
2018-02-23T18:29:36.228Z,0.40
2018-02-23T18:32:03.836Z,0.46
2018-02-23T18:34:31.302Z,0.44
2018-02-23T18:36:59.164Z,0.45
2018-02-23T18:39:28.346Z,0.39
2018-02-23T18:41:56.047Z,0.33
2018-02-23T18:44:23.729Z,0.27
2018-02-23T18:46:51.446Z,0.26
2018-02-23T18:49:19.075Z,0.13
2018-02-23T18:51:46.842Z,-0.05
2018-02-23T18:54:14.487Z,0.06
2018-02-23T18:56:42.046Z,0.19
2018-02-23T18:59:09.550Z,0.27
2018-02-23T19:01:37.988Z,0.18
2018-02-23T19:04:05.516Z,0.13
2018-02-23T19:06:33.060Z,0.12
2018-02-23T19:09:00.548Z,0.09
2018-02-23T19:11:29.544Z,0.04
2018-02-23T19:13:57.180Z,0.02
2018-02-23T19:16:24.728Z,-0.03
2018-02-23T19:18:52.239Z,-0.09
2018-02-23T19:21:19.842Z,-0.20
2018-02-23T19:23:47.508Z,-0.27
2018-02-23T19:26:14.982Z,-0.37
2018-02-23T19:28:42.775Z,-0.50
2018-02-23T19:31:10.331Z,-0.63
2018-02-23T19:33:37.821Z,-0.77
2018-02-23T19:36:06.148Z,-0.69
2018-02-23T19:38:33.707Z,-0.79
2018-02-23T19:41:01.216Z,-0.99
2018-02-23T19:43:31.982Z,-0.91
2018-02-23T19:46:02.188Z,-0.82
2018-02-23T19:48:29.748Z,-0.99
2018-02-23T19:50:57.734Z,-1.16
2018-02-23T19:53:25.405Z,-1.19
2018-02-23T19:55:52.891Z,-1.20
2018-02-23T19:58:23.034Z,-1.17
2018-02-23T20:00:50.717Z,-1.27
2018-02-23T20:03:18.911Z,-1.35
2018-02-23T20:05:47.549Z,-1.48
2018-02-23T20:08:15.629Z,-1.48
2018-02-23T20:10:43.128Z,-1.56
2018-02-23T20:13:12.069Z,-1.67
2018-02-23T20:15:40.733Z,-1.53
2018-02-23T20:18:08.490Z,-1.50
2018-02-23T20:20:37.377Z,-1.41
2018-02-23T20:23:05.219Z,-1.46
2018-02-23T20:25:32.728Z,-1.41
2018-02-23T20:28:00.319Z,-1.38
2018-02-23T20:30:28.806Z,-1.43
2018-02-23T20:32:56.657Z,-1.53
2018-02-23T20:38:20.001Z,-1.69
2018-02-23T20:40:47.886Z,-1.84
2018-02-23T20:43:15.624Z,-1.90
2018-02-23T20:45:43.372Z,-1.98
2018-02-23T20:48:11.023Z,-1.91
2018-02-23T20:50:40.255Z,-1.82
2018-02-23T20:53:08.068Z,-1.79
2018-02-23T20:55:37.507Z,-1.70
2018-02-23T20:58:05.422Z,-1.61
2018-02-23T21:00:33.197Z,-1.63
2018-02-23T21:03:00.727Z,-1.54
2018-02-23T21:05:28.503Z,-1.56
2018-02-23T21:07:56.052Z,-1.53
2018-02-23T21:10:24.386Z,-1.49
2018-02-23T21:12:51.915Z,-1.55
2018-02-23T21:15:19.662Z,-1.59
2018-02-23T21:17:48.103Z,-1.62
2018-02-23T21:20:15.948Z,-1.58
2018-02-23T21:22:43.742Z,-1.58
2018-02-23T21:25:11.256Z,-1.65
2018-02-23T21:27:39.769Z,-1.64
2018-02-23T21:30:08.250Z,-1.63
2018-02-23T21:32:36.071Z,-1.66
2018-02-23T21:35:03.680Z,-1.67
2018-02-23T21:37:31.822Z,-1.73
2018-02-23T21:40:01.209Z,-1.84
2018-02-23T21:42:29.038Z,-1.72
2018-02-23T21:44:56.585Z,-1.68
2018-02-23T21:47:24.554Z,-1.76
2018-02-23T21:49:52.148Z,-1.82
2018-02-23T21:52:19.691Z,-1.82
2018-02-23T21:54:47.180Z,-1.85
2018-02-23T21:57:14.869Z,-1.85
2018-02-23T21:59:43.471Z,-1.95
2018-02-23T22:02:11.007Z,-1.90
2018-02-23T22:04:42.227Z,-1.88
2018-02-23T22:07:09.924Z,-1.79
2018-02-23T22:09:37.516Z,-1.80
2018-02-23T22:12:05.227Z,-1.89
2018-02-23T22:14:32.756Z,-1.91
2018-02-23T22:17:00.908Z,-1.99
2018-02-23T22:19:28.744Z,-2.06
2018-02-23T22:21:56.712Z,-2.11
2018-02-23T22:24:25.252Z,-2.14
2018-02-23T22:26:52.735Z,-2.16
2018-02-23T22:29:20.311Z,-2.24
2018-02-23T22:31:47.832Z,-2.50
2018-02-23T22:34:15.347Z,-2.42
2018-02-23T22:36:42.826Z,-2.56
2018-02-23T22:39:10.399Z,-2.49
2018-02-23T22:41:37.895Z,-2.28
2018-02-23T22:44:05.859Z,-2.12
2018-02-23T22:46:33.331Z,-1.94
2018-02-23T22:49:01.333Z,-1.93
2018-02-23T22:51:28.992Z,-1.80
2018-02-23T22:53:56.515Z,-1.86
2018-02-23T22:56:24.214Z,-1.76
2018-02-23T22:58:51.675Z,-1.77
2018-02-23T23:01:19.228Z,-1.72
2018-02-23T23:03:46.998Z,-1.58
2018-02-23T23:06:14.490Z,-1.67
2018-02-23T23:08:46.071Z,-1.77
2018-02-23T23:11:13.559Z,-1.80
2018-02-23T23:13:41.043Z,-1.90
2018-02-23T23:16:08.818Z,-1.82
2018-02-23T23:18:36.303Z,-1.79
2018-02-23T23:21:03.850Z,-1.79
2018-02-23T23:23:31.599Z,-1.78
2018-02-23T23:25:59.202Z,-1.87
2018-02-23T23:28:26.720Z,-1.91
2018-02-23T23:30:54.614Z,-1.98
2018-02-23T23:33:22.394Z,-1.98
2018-02-23T23:35:49.924Z,-1.99
2018-02-23T23:38:17.412Z,-2.03
2018-02-23T23:40:45.186Z,-2.04
2018-02-23T23:43:12.727Z,-2.09
2018-02-23T23:45:40.262Z,-2.20
2018-02-23T23:48:08.677Z,-2.13
2018-02-23T23:50:36.408Z,-2.16
2018-02-23T23:53:05.267Z,-2.16
2018-02-23T23:55:32.759Z,-2.16
2018-02-23T23:58:00.326Z,-2.37
